Factoryville, Pennsylvania
Current Conditions -  °F | °C
As of 4:54 AM on Monday 22 Dec 2014 (Local Time) from KAVP Reporting Station
Overcast Overcast  
Wind Chill: 31°   Ceiling: 2000
Heat Index: 31°   Visibility: 10mi
Dew Point: 22°   Wind: 3mph
Humidity: 69%   Direction: 80°E
Pressure: 30.26"   Gusts: NA
Location:  41.56°N, 75.78°W
Report Text: KAVP 220954Z AUTO 08003KT 10SM OVC020 M01/M06 A3026 RMK AO2 SLP256 T10061056
Loading
Personal Weather Stations






























Interactive Weather Map New forecast layout! Learn more

10-Day Weather Forecast

Advertisements
Track Severe Weather on mobile